Time;durP1;ratioP1;P1;durP2;ratioP2;P2;SDS_P1;SDS_P2;PMS_P1;PMS_P2;Temp;Humidity;BMP_temperature;BMP_pressure;BME280_temperature;BME280_humidity;BME280_pressure;Samples;Min_cycle;Max_cycle;Signal;HPM_P1;HPM_P2
2023/09/14 00:00:08;;;;;;;12.85;4.18;;;9.40;99.90;;;;;;6127760;23;20040;-84
2023/09/14 00:02:55;;;;;;;10.50;4.13;;;9.40;99.90;;;;;;6128278;23;20023;-83
2023/09/14 00:05:20;;;;;;;13.55;4.43;;;9.40;99.90;;;;;;6129262;23;20375;-84
2023/09/14 00:07:46;;;;;;;10.25;3.78;;;9.40;99.90;;;;;;6128495;23;20048;-84
2023/09/14 00:10:24;;;;;;;11.57;4.65;;;10.50;99.90;;;;;;6129871;23;20056;-84
2023/09/14 00:12:51;;;;;;;10.13;3.70;;;9.40;99.90;;;;;;6129432;23;20013;-84
2023/09/14 00:15:17;;;;;;;12.35;4.10;;;10.30;99.90;;;;;;6128531;23;20017;-84
2023/09/14 00:17:54;;;;;;;12.98;3.30;;;9.80;99.90;;;;;;6129355;23;20109;-84
2023/09/14 00:20:39;;;;;;;10.57;3.63;;;9.80;99.90;;;;;;6128630;23;20025;-84
2023/09/14 00:23:04;;;;;;;12.43;3.55;;;9.30;99.90;;;;;;6127017;23;20060;-84
2023/09/14 00:25:30;;;;;;;9.52;3.40;;;10.50;99.90;;;;;;6129733;23;20021;-84
2023/09/14 00:27:56;;;;;;;12.25;3.50;;;9.30;99.90;;;;;;6129468;23;20469;-84
2023/09/14 00:30:22;;;;;;;10.25;3.35;;;9.30;99.90;;;;;;6129228;23;20023;-84
2023/09/14 00:32:50;;;;;;;10.07;3.70;;;9.30;99.90;;;;;;6129898;23;20063;-84
2023/09/14 00:35:18;;;;;;;10.65;3.67;;;9.30;99.90;;;;;;6129899;23;20018;-84
2023/09/14 00:37:44;;;;;;;10.40;3.47;;;9.30;99.90;;;;;;6128125;23;20018;-84
2023/09/14 00:40:10;;;;;;;13.05;3.67;;;9.30;99.90;;;;;;6129765;23;20028;-84
2023/09/14 00:42:41;;;;;;;10.38;3.30;;;9.30;99.90;;;;;;6129436;23;20009;-84
2023/09/14 00:45:08;;;;;;;9.98;3.30;;;9.30;99.90;;;;;;6129253;23;20088;-84
2023/09/14 00:47:35;;;;;;;11.68;3.78;;;9.20;99.90;;;;;;6129289;23;20088;-84
2023/09/14 00:50:03;;;;;;;11.73;3.47;;;9.20;99.90;;;;;;6129295;23;20082;-84
2023/09/14 00:52:29;;;;;;;15.02;4.40;;;9.20;99.90;;;;;;6183981;23;20025;-84
2023/09/14 00:54:55;;;;;;;10.10;3.85;;;9.20;99.90;;;;;;6183286;23;20013;-84
2023/09/14 00:57:21;;;;;;;10.98;3.90;;;9.20;99.90;;;;;;6182897;23;20393;-84
2023/09/14 00:59:46;;;;;;;11.65;3.90;;;9.20;99.90;;;;;;6183057;23;20028;-84
2023/09/14 01:02:12;;;;;;;10.50;3.80;;;9.90;99.90;;;;;;6183907;23;20044;-84
2023/09/14 01:04:40;;;;;;;12.30;3.60;;;9.20;99.90;;;;;;6182228;23;20472;-84
2023/09/14 01:07:05;;;;;;;12.05;3.92;;;9.10;99.90;;;;;;6183801;23;20059;-84
2023/09/14 01:09:31;;;;;;;11.30;4.00;;;9.20;99.90;;;;;;6183739;23;20009;-84
2023/09/14 01:11:57;;;;;;;12.50;4.20;;;9.20;99.90;;;;;;6182418;23;20013;-84
2023/09/14 01:14:32;;;;;;;12.00;4.13;;;9.10;99.90;;;;;;6183670;23;20024;-84
2023/09/14 01:17:14;;;;;;;9.85;3.90;;;9.10;99.90;;;;;;6183227;23;20034;-84
2023/09/14 01:20:01;;;;;;;11.63;4.03;;;9.10;99.90;;;;;;6182151;23;20095;-84
2023/09/14 01:22:47;;;;;;;11.60;4.20;;;9.10;99.90;;;;;;6183947;23;20013;-84
2023/09/14 01:25:40;;;;;;;10.48;3.97;;;9.10;99.90;;;;;;6182911;23;20048;-84
2023/09/14 01:28:08;;;;;;;11.82;3.90;;;9.10;99.90;;;;;;6183525;23;20017;-84
2023/09/14 01:30:33;;;;;;;12.10;3.83;;;9.10;99.90;;;;;;6183306;23;20013;-84
2023/09/14 01:32:59;;;;;;;11.43;3.58;;;9.10;99.90;;;;;;6182774;23;20097;-84
2023/09/14 01:35:30;;;;;;;10.90;4.30;;;9.10;99.90;;;;;;6183840;23;20389;-84
2023/09/14 01:37:59;;;;;;;11.13;3.88;;;9.10;99.90;;;;;;6183168;23;20024;-84
2023/09/14 01:40:26;;;;;;;10.45;3.45;;;9.10;99.90;;;;;;6182147;23;20457;-84
2023/09/14 01:42:54;;;;;;;12.27;4.22;;;9.00;99.90;;;;;;6183109;23;20013;-83
2023/09/14 01:45:33;;;;;;;12.80;4.00;;;9.10;99.90;;;;;;6183552;23;20021;-84
2023/09/14 01:48:00;;;;;;;10.10;3.63;;;9.00;99.90;;;;;;6184341;23;20017;-84
2023/09/14 01:50:26;;;;;;;10.50;3.92;;;9.00;99.90;;;;;;6182580;23;20021;-84
2023/09/14 01:53:14;;;;;;;10.85;3.85;;;9.00;99.90;;;;;;6183050;23;20040;-84
2023/09/14 01:55:39;;;;;;;11.90;3.72;;;8.90;99.90;;;;;;6182697;23;20060;-84
2023/09/14 01:58:05;;;;;;;12.40;3.53;;;8.90;99.90;;;;;;6183438;23;20444;-84
2023/09/14 02:00:43;;;;;;;13.30;4.18;;;9.10;99.90;;;;;;6184279;23;20346;-84
2023/09/14 02:03:08;;;;;;;11.65;4.28;;;8.80;99.90;;;;;;6183394;23;20052;-85
2023/09/14 02:05:34;;;;;;;11.23;4.07;;;9.90;99.90;;;;;;6181556;23;20457;-84
2023/09/14 02:08:00;;;;;;;11.05;4.13;;;9.40;99.90;;;;;;6182302;23;20032;-84
2023/09/14 02:10:26;;;;;;;11.93;3.97;;;8.80;99.90;;;;;;6184997;23;20009;-82
2023/09/14 02:12:52;;;;;;;15.52;4.50;;;8.80;99.90;;;;;;6158086;23;20021;-83
2023/09/14 02:15:17;;;;;;;11.55;4.50;;;8.80;99.90;;;;;;6182022;23;20037;-83
2023/09/14 02:20:38;;;;;;;12.57;4.90;;;8.70;99.90;;;;;;6182521;23;20021;-82
2023/09/14 02:23:19;;;;;;;12.68;4.47;;;9.90;99.90;;;;;;6180639;23;20056;-83
2023/09/14 02:25:45;;;;;;;12.35;4.50;;;9.30;99.90;;;;;;6182863;23;20381;-82
2023/09/14 02:28:11;;;;;;;13.77;4.78;;;8.50;99.90;;;;;;6182189;23;20021;-82
2023/09/14 02:30:52;;;;;;;13.88;4.60;;;9.60;99.90;;;;;;6182453;23;20017;-82
2023/09/14 02:33:18;;;;;;;11.02;4.47;;;8.40;99.90;;;;;;6183430;23;20020;-83
2023/09/14 02:35:47;;;;;;;10.00;4.28;;;8.50;99.90;;;;;;6181918;23;20017;-83
2023/09/14 02:38:31;;;;;;;13.02;4.60;;;8.90;99.90;;;;;;6182814;23;20013;-82
2023/09/14 02:40:56;;;;;;;11.75;4.32;;;8.70;99.90;;;;;;6184805;23;20531;-83
2023/09/14 02:43:22;;;;;;;14.45;4.40;;;9.60;99.90;;;;;;6184475;23;20017;-83
2023/09/14 02:45:48;;;;;;;12.48;4.10;;;9.50;99.90;;;;;;6183916;23;20032;-83
2023/09/14 02:48:28;;;;;;;12.27;4.57;;;8.40;99.90;;;;;;6183985;23;20017;-82
2023/09/14 02:50:54;;;;;;;13.00;4.50;;;8.40;99.90;;;;;;6183299;23;20032;-83
2023/09/14 02:53:20;;;;;;;10.45;3.97;;;8.40;99.90;;;;;;6185002;23;20021;-82
2023/09/14 02:55:45;;;;;;;12.27;3.90;;;8.40;99.90;;;;;;6184746;23;20009;-83
2023/09/14 02:58:11;;;;;;;11.18;3.90;;;8.40;99.90;;;;;;6183702;23;20450;-82
2023/09/14 03:00:52;;;;;;;10.82;3.70;;;8.40;99.90;;;;;;6180951;23;20501;-83
2023/09/14 03:03:18;;;;;;;13.23;4.22;;;8.40;99.90;;;;;;6184666;23;20063;-83
2023/09/14 03:05:43;;;;;;;11.05;4.22;;;8.40;99.90;;;;;;6184706;23;20013;-82
2023/09/14 03:08:09;;;;;;;12.07;4.55;;;8.40;99.90;;;;;;6185011;23;20076;-83
2023/09/14 03:10:36;;;;;;;11.00;4.00;;;8.60;99.90;;;;;;6183652;23;20040;-82
2023/09/14 03:13:01;;;;;;;11.45;4.05;;;9.30;99.90;;;;;;6184889;23;20048;-83
2023/09/14 03:15:27;;;;;;;11.13;4.20;;;8.30;99.90;;;;;;6184714;23;20024;-83
2023/09/14 03:17:53;;;;;;;11.52;4.13;;;8.30;99.90;;;;;;6183933;23;20043;-83
2023/09/14 03:20:19;;;;;;;12.00;3.88;;;8.30;99.90;;;;;;6189751;23;20020;-82
2023/09/14 03:22:44;;;;;;;11.48;4.53;;;9.50;99.90;;;;;;6189515;23;20034;-82
2023/09/14 03:25:10;;;;;;;12.55;4.32;;;8.30;99.90;;;;;;6189132;23;20021;-83
2023/09/14 03:27:36;;;;;;;12.45;4.45;;;8.30;99.90;;;;;;6189330;23;20472;-83
2023/09/14 03:30:02;;;;;;;12.57;4.25;;;8.30;99.90;;;;;;6189646;23;20024;-83
2023/09/14 03:32:28;;;;;;;12.45;4.32;;;8.20;99.90;;;;;;6188190;23;20021;-83
2023/09/14 03:34:53;;;;;;;14.00;4.43;;;8.20;99.90;;;;;;6189371;23;20016;-83
2023/09/14 03:37:19;;;;;;;14.23;4.60;;;8.20;99.90;;;;;;6189734;23;20023;-82
2023/09/14 03:39:45;;;;;;;10.80;4.05;;;8.20;99.90;;;;;;6188379;23;20092;-83
2023/09/14 03:42:11;;;;;;;10.90;4.30;;;8.20;99.90;;;;;;6189509;23;20013;-82
2023/09/14 03:44:37;;;;;;;10.88;3.85;;;8.20;99.90;;;;;;6189346;23;20446;-83
2023/09/14 03:47:03;;;;;;;11.13;4.13;;;8.20;99.90;;;;;;6214516;23;20016;-82
2023/09/14 03:49:28;;;;;;;12.35;4.30;;;8.10;99.90;;;;;;6189541;23;20457;-82
2023/09/14 03:51:54;;;;;;;12.77;4.35;;;8.20;99.90;;;;;;6214979;23;20468;-83
2023/09/14 03:54:20;;;;;;;11.45;4.50;;;8.10;99.90;;;;;;6214975;23;20350;-82
2023/09/14 03:56:45;;;;;;;12.00;4.43;;;8.10;99.90;;;;;;6189503;23;20425;-82
2023/09/14 03:59:11;;;;;;;10.20;4.15;;;8.10;99.90;;;;;;6216258;23;20016;-82
2023/09/14 04:01:37;;;;;;;10.70;4.40;;;8.60;99.90;;;;;;6214865;23;20389;-82
2023/09/14 04:04:15;;;;;;;12.00;4.65;;;8.70;99.90;;;;;;6188601;23;20344;-83
2023/09/14 04:06:40;;;;;;;10.52;4.10;;;8.00;99.90;;;;;;6187551;23;20104;-82
2023/09/14 04:09:06;;;;;;;12.38;4.18;;;8.30;99.90;;;;;;6189118;23;20040;-83
2023/09/14 04:11:32;;;;;;;10.68;4.30;;;8.10;99.90;;;;;;6189255;23;20488;-83
2023/09/14 04:14:12;;;;;;;11.45;4.35;;;8.10;99.90;;;;;;6187713;23;20008;-83
2023/09/14 04:16:38;;;;;;;12.52;4.55;;;8.10;99.90;;;;;;6188963;23;20027;-83
2023/09/14 04:19:04;;;;;;;13.15;5.18;;;9.00;99.90;;;;;;6189266;23;20020;-82
2023/09/14 04:21:30;;;;;;;12.90;4.70;;;8.10;99.90;;;;;;6187587;23;20068;-83
2023/09/14 04:23:55;;;;;;;11.95;4.72;;;8.00;99.90;;;;;;6189211;23;20017;-83
2023/09/14 04:26:21;;;;;;;13.30;4.40;;;8.10;99.90;;;;;;6189193;23;20012;-83
2023/09/14 04:28:46;;;;;;;13.57;5.07;;;8.00;99.90;;;;;;6188042;23;20483;-83
2023/09/14 04:31:12;;;;;;;12.45;5.00;;;8.00;99.90;;;;;;6187768;23;20017;-82
2023/09/14 04:33:41;;;;;;;11.40;4.53;;;8.00;99.90;;;;;;6189062;23;20140;-83
2023/09/14 04:36:06;;;;;;;11.23;4.60;;;8.00;99.90;;;;;;6187883;23;20017;-82
2023/09/14 04:38:32;;;;;;;12.82;4.90;;;8.00;99.90;;;;;;6189305;23;20377;-83
2023/09/14 04:41:02;;;;;;;13.23;4.63;;;7.90;99.90;;;;;;6189143;23;20027;-82
2023/09/14 04:43:29;;;;;;;11.88;4.82;;;7.90;99.90;;;;;;6188271;23;20024;-82
2023/09/14 04:45:55;;;;;;;12.15;4.82;;;7.90;99.90;;;;;;6188828;23;20468;-82
2023/09/14 04:48:20;;;;;;;12.10;4.93;;;7.90;99.90;;;;;;6189681;23;20016;-82
2023/09/14 04:50:48;;;;;;;11.63;4.15;;;7.90;99.90;;;;;;6187434;23;20027;-83
2023/09/14 04:53:39;;;;;;;11.30;4.13;;;7.90;99.90;;;;;;6207103;23;20020;-83
2023/09/14 04:56:18;;;;;;;12.32;4.63;;;7.80;99.90;;;;;;6187569;23;20380;-82
2023/09/14 04:58:43;;;;;;;14.65;5.00;;;7.80;99.90;;;;;;6188570;23;20020;-83
2023/09/14 05:01:09;;;;;;;15.27;5.40;;;7.70;99.90;;;;;;6189542;23;20013;-83
2023/09/14 05:03:35;;;;;;;12.25;4.82;;;8.90;99.90;;;;;;6188125;23;20464;-83
2023/09/14 05:06:02;;;;;;;13.48;4.80;;;8.20;99.90;;;;;;6189969;23;20017;-82
2023/09/14 05:08:28;;;;;;;12.50;5.15;;;7.80;99.90;;;;;;6188704;23;20043;-83
2023/09/14 05:10:53;;;;;;;12.40;4.97;;;7.80;99.90;;;;;;6187696;23;20025;-83
2023/09/14 05:13:22;;;;;;;13.85;4.65;;;8.80;99.90;;;;;;6188878;23;20017;-83
2023/09/14 05:15:48;;;;;;;13.55;5.07;;;7.80;99.90;;;;;;6188259;23;20027;-82
2023/09/14 05:18:14;;;;;;;15.25;5.05;;;7.90;99.90;;;;;;6187323;23;20016;-84
2023/09/14 05:20:55;;;;;;;11.00;4.38;;;7.80;99.90;;;;;;6188471;23;20123;-83
2023/09/14 05:23:21;;;;;;;14.43;4.93;;;7.90;99.90;;;;;;6188937;23;20016;-83
2023/09/14 05:25:50;;;;;;;13.45;5.22;;;7.90;99.90;;;;;;6187379;23;20337;-82
2023/09/14 05:31:57;;;;;;;17.00;5.43;;;7.30;99.90;;;;;;6208882;23;20182;-86
2023/09/14 05:34:49;;;;;;;14.23;5.15;;;8.00;99.90;;;;;;6215135;23;20341;-84
2023/09/14 05:41:36;;;;;;;14.10;5.43;;;8.00;99.90;;;;;;6214607;23;20032;-84
2023/09/14 05:47:24;;;;;;;17.85;5.93;;;8.20;99.90;;;;;;6214293;23;20373;-84
2023/09/14 05:50:15;;;;;;;14.73;5.72;;;8.10;99.90;;;;;;6187170;23;20465;-86
2023/09/14 05:52:42;;;;;;;16.75;5.72;;;8.20;99.90;;;;;;6186559;23;20330;-86
2023/09/14 05:55:08;;;;;;;15.32;5.90;;;8.90;99.90;;;;;;6188101;23;20019;-89
2023/09/14 05:57:34;;;;;;;15.95;6.15;;;8.30;99.90;;;;;;6188557;23;20100;-85
2023/09/14 06:03:05;;;;;;;19.35;7.00;;;9.30;99.90;;;;;;6208387;23;20028;-87
2023/09/14 06:10:04;;;;;;;16.00;5.60;;;8.60;99.90;;;;;;6097441;23;20380;-85
2023/09/14 06:13:20;;;;;;;13.45;5.20;;;8.60;99.90;;;;;;6187736;23;20023;-86
2023/09/14 06:16:01;;;;;;;14.25;5.35;;;8.10;99.90;;;;;;6187384;23;20029;-83
2023/09/14 06:18:28;;;;;;;13.63;5.55;;;8.80;99.90;;;;;;6188846;23;20016;-83
2023/09/14 06:20:54;;;;;;;15.40;5.45;;;8.90;99.90;;;;;;6186964;23;20405;-84
2023/09/14 06:23:34;;;;;;;14.82;5.40;;;9.00;99.90;;;;;;6187708;23;20016;-83
2023/09/14 06:26:00;;;;;;;13.57;6.00;;;9.10;99.90;;;;;;6186580;23;20066;-83
2023/09/14 06:28:35;;;;;;;13.88;5.90;;;9.10;99.90;;;;;;6186584;23;20380;-83
2023/09/14 06:31:01;;;;;;;14.73;5.82;;;8.20;99.90;;;;;;6187694;23;20040;-83
2023/09/14 06:33:26;;;;;;;23.23;6.30;;;9.30;99.90;;;;;;6187872;23;20445;-81
2023/09/14 06:35:52;;;;;;;18.08;6.03;;;9.30;99.90;;;;;;6186832;23;20028;-81
2023/09/14 06:38:18;;;;;;;15.98;5.45;;;9.40;99.90;;;;;;6188284;23;20408;-81
2023/09/14 06:40:44;;;;;;;14.18;5.38;;;9.50;99.90;;;;;;6187766;23;20021;-82
2023/09/14 06:43:10;;;;;;;15.05;5.70;;;9.70;99.90;;;;;;6187471;23;20013;-81
2023/09/14 06:45:50;;;;;;;17.48;5.25;;;9.80;99.90;;;;;;6187400;23;20027;-81
2023/09/14 06:48:16;;;;;;;13.88;5.45;;;9.90;99.90;;;;;;6187710;23;20017;-82
2023/09/14 06:50:41;;;;;;;16.63;5.65;;;10.00;99.90;;;;;;6187005;23;20016;-82
2023/09/14 06:53:27;;;;;;;13.90;5.35;;;11.10;99.90;;;;;;6188362;23;20024;-82
2023/09/14 06:56:15;;;;;;;16.02;5.55;;;10.20;99.90;;;;;;6187394;23;20020;-84
2023/09/14 06:58:41;;;;;;;16.23;5.28;;;10.40;99.90;;;;;;6187950;23;20067;-85
2023/09/14 07:01:10;;;;;;;12.65;5.05;;;10.40;99.90;;;;;;6185090;23;20070;-82
2023/09/14 07:03:35;;;;;;;12.93;5.55;;;11.40;99.90;;;;;;6186813;23;20091;-81
2023/09/14 07:06:10;;;;;;;14.32;5.63;;;10.60;99.90;;;;;;6187606;23;20106;-82
2023/09/14 07:08:40;;;;;;;19.30;5.70;;;11.20;99.90;;;;;;6186261;23;20044;-82
2023/09/14 07:11:15;;;;;;;14.30;5.40;;;10.80;99.90;;;;;;6185846;23;20024;-83
2023/09/14 07:13:40;;;;;;;15.80;5.72;;;10.90;99.90;;;;;;6187292;23;20029;-83
2023/09/14 07:16:23;;;;;;;15.88;4.70;;;12.30;99.90;;;;;;6188243;23;20031;-82
2023/09/14 07:18:49;;;;;;;15.35;5.13;;;11.10;99.90;;;;;;6186772;23;20009;-82
2023/09/14 07:21:27;;;;;;;12.63;5.13;;;12.50;99.90;;;;;;6187913;23;20021;-82
2023/09/14 07:23:53;;;;;;;15.52;5.18;;;11.50;99.90;;;;;;6186653;23;20020;-82
2023/09/14 07:26:28;;;;;;;17.88;6.53;;;11.60;99.90;;;;;;6189112;23;20087;-82
2023/09/14 07:29:03;;;;;;;17.63;5.85;;;11.70;99.90;;;;;;6189639;23;20657;-82
2023/09/14 07:31:31;;;;;;;16.58;5.07;;;11.80;99.90;;;;;;6188769;23;20013;-82
2023/09/14 07:34:00;;;;;;;13.18;3.83;;;12.00;99.90;;;;;;6189659;23;20381;-83
2023/09/14 07:36:31;;;;;;;15.45;4.20;;;13.10;99.90;;;;;;6216526;23;20016;-83
2023/09/14 07:39:09;;;;;;;14.02;3.95;;;12.50;99.90;;;;;;6188129;23;20017;-86
2023/09/14 07:41:38;;;;;;;11.70;3.38;;;12.40;99.90;;;;;;6188087;23;20052;-82
2023/09/14 07:44:09;;;;;;;14.75;3.55;;;13.00;99.90;;;;;;6189818;23;20364;-82
2023/09/14 07:46:41;;;;;;;15.10;4.28;;;13.50;99.90;;;;;;6188346;23;20103;-84
2023/09/14 07:49:07;;;;;;;12.55;3.50;;;12.80;99.90;;;;;;6215923;23;20012;-83
2023/09/14 07:51:39;;;;;;;12.45;3.30;;;14.00;99.90;;;;;;6186634;23;20394;-83
2023/09/14 07:54:08;;;;;;;12.60;3.47;;;14.00;99.90;;;;;;6189089;23;20338;-83
2023/09/14 07:56:47;;;;;;;10.88;3.10;;;13.00;99.90;;;;;;6189300;23;20441;-82
2023/09/14 07:59:21;;;;;;;12.05;3.85;;;13.20;99.90;;;;;;6188042;23;20008;-83
2023/09/14 08:01:53;;;;;;;12.77;4.10;;;13.10;99.90;;;;;;6188496;23;20024;-83
2023/09/14 08:04:22;;;;;;;12.38;3.72;;;13.30;99.90;;;;;;6188498;23;20047;-82
2023/09/14 08:06:54;;;;;;;14.48;3.72;;;13.70;99.90;;;;;;6187920;23;20020;-83
2023/09/14 08:09:26;;;;;;;13.27;3.85;;;14.60;99.90;;;;;;6189353;23;20012;-82
2023/09/14 08:11:55;;;;;;;11.80;4.28;;;14.00;99.90;;;;;;6183095;23;20024;-83
2023/09/14 08:14:33;;;;;;;10.38;3.70;;;14.50;99.90;;;;;;6183560;23;20024;-83
2023/09/14 08:17:08;;;;;;;11.88;3.35;;;13.60;99.90;;;;;;6183931;23;20024;-82
2023/09/14 08:19:36;;;;;;;11.10;3.78;;;13.70;99.90;;;;;;6183943;23;20025;-84
2023/09/14 08:22:08;;;;;;;13.02;3.28;;;14.00;99.90;;;;;;6183097;23;20044;-83
2023/09/14 08:24:40;;;;;;;9.77;2.90;;;13.90;99.90;;;;;;6184038;23;20020;-83
2023/09/14 08:27:15;;;;;;;10.90;3.20;;;14.00;99.90;;;;;;6182737;23;20085;-84
2023/09/14 08:29:47;;;;;;;11.88;3.30;;;15.30;99.90;;;;;;6183792;23;20096;-83
2023/09/14 08:32:16;;;;;;;11.30;3.25;;;14.20;99.90;;;;;;6182695;23;20090;-83
2023/09/14 08:34:42;;;;;;;11.13;3.17;;;14.90;99.90;;;;;;6180339;23;20092;-82
2023/09/14 08:37:10;;;;;;;10.38;3.00;;;14.30;99.90;;;;;;6182996;23;20575;-83
2023/09/14 08:39:44;;;;;;;10.75;2.88;;;15.20;99.90;;;;;;6183263;23;20013;-83
2023/09/14 08:42:24;;;;;;;12.68;3.17;;;14.50;99.90;;;;;;6183075;23;20040;-83
2023/09/14 08:44:52;;;;;;;8.68;2.75;;;14.60;99.90;;;;;;6183102;23;20024;-82
2023/09/14 08:47:39;;;;;;;9.93;2.72;;;15.50;99.90;;;;;;6183574;23;20024;-83
2023/09/14 08:50:05;;;;;;;12.45;2.50;;;15.90;99.90;;;;;;6181681;23;20013;-83
2023/09/14 08:52:51;;;;;;;10.45;2.22;;;14.90;99.90;;;;;;6182074;23;20414;-83
2023/09/14 08:55:20;;;;;;;9.75;2.38;;;15.00;99.90;;;;;;6182619;23;20568;-84
2023/09/14 08:57:47;;;;;;;8.95;2.65;;;15.10;99.90;;;;;;6182688;23;20057;-83
2023/09/14 09:00:29;;;;;;;10.30;2.20;;;15.20;99.90;;;;;;6182526;23;20048;-84
2023/09/14 09:02:56;;;;;;;10.95;2.60;;;15.30;99.90;;;;;;6183113;23;20381;-83
2023/09/14 09:05:43;;;;;;;11.82;2.20;;;15.90;99.90;;;;;;6183358;23;20005;-81
2023/09/14 09:08:10;;;;;;;10.73;2.30;;;16.40;99.90;;;;;;6183998;23;20048;-81
2023/09/14 09:10:38;;;;;;;8.63;2.17;;;15.70;99.90;;;;;;6184308;23;20092;-83
2023/09/14 09:13:04;;;;;;;9.73;2.20;;;15.70;99.90;;;;;;6188986;23;20021;-83
2023/09/14 09:15:32;;;;;;;9.25;2.10;;;15.70;99.90;;;;;;6188168;23;20102;-82
2023/09/14 09:18:08;;;;;;;12.55;2.60;;;15.80;99.90;;;;;;6187180;23;20012;-83
2023/09/14 09:20:36;;;;;;;10.32;2.10;;;15.70;99.90;;;;;;6187905;23;20099;-82
2023/09/14 09:23:03;;;;;;;10.13;2.33;;;15.80;99.90;;;;;;6187954;23;20009;-82
2023/09/14 09:25:42;;;;;;;9.32;2.30;;;15.90;99.90;;;;;;6187861;23;20310;-82
2023/09/14 09:28:07;;;;;;;9.32;2.20;;;16.10;99.90;;;;;;6188300;23;20055;-82
2023/09/14 09:30:35;;;;;;;8.95;2.13;;;16.20;99.90;;;;;;6185973;23;20012;-83
2023/09/14 09:33:02;;;;;;;8.55;2.00;;;16.60;99.90;;;;;;6188606;23;20373;-83
2023/09/14 09:35:29;;;;;;;10.50;2.38;;;16.30;99.90;;;;;;6188433;23;20023;-83
2023/09/14 09:37:59;;;;;;;11.57;2.35;;;16.40;99.90;;;;;;6187505;23;20468;-82
2023/09/14 09:40:27;;;;;;;10.50;2.15;;;16.50;99.90;;;;;;6187747;23;20021;-82
2023/09/14 09:42:54;;;;;;;9.18;2.10;;;16.60;99.90;;;;;;6188293;23;20013;-82
2023/09/14 09:45:21;;;;;;;8.88;2.28;;;16.80;99.90;;;;;;6187520;23;20185;-82
2023/09/14 09:47:47;;;;;;;8.90;2.50;;;16.90;99.90;;;;;;6215427;23;20329;-82
2023/09/14 09:50:14;;;;;;;9.10;2.13;;;17.10;99.90;;;;;;6215265;23;20023;-81
2023/09/14 09:52:42;;;;;;;10.18;2.47;;;17.00;99.90;;;;;;6187692;23;20028;-82
2023/09/14 09:55:16;;;;;;;9.30;2.45;;;16.90;99.90;;;;;;6188462;23;20446;-82
2023/09/14 09:57:53;;;;;;;10.40;2.47;;;16.80;99.90;;;;;;6188093;23;20008;-82
2023/09/14 10:00:20;;;;;;;10.43;2.22;;;17.00;99.90;;;;;;6187227;23;20020;-82
2023/09/14 10:02:47;;;;;;;8.95;2.30;;;17.00;99.90;;;;;;6187265;23;20016;-81
2023/09/14 10:05:13;;;;;;;9.65;2.35;;;17.20;99.90;;;;;;6188456;23;20018;-82
2023/09/14 10:07:40;;;;;;;8.75;2.60;;;17.50;99.90;;;;;;6186964;23;20088;-82
2023/09/14 10:10:10;;;;;;;10.85;2.33;;;17.90;99.90;;;;;;6188184;23;20111;-82
2023/09/14 10:12:39;;;;;;;17.00;2.78;;;18.10;99.90;;;;;;6186976;23;20009;-82
2023/09/14 10:15:09;;;;;;;8.55;2.15;;;18.20;99.90;;;;;;6188264;23;20027;-82
2023/09/14 10:17:35;;;;;;;11.43;2.30;;;18.30;99.90;;;;;;6213071;23;20020;-82
2023/09/14 10:20:06;;;;;;;9.00;2.00;;;18.20;99.90;;;;;;6187409;23;20027;-83
2023/09/14 10:22:32;;;;;;;11.15;2.30;;;18.30;99.90;;;;;;6188526;23;20013;-81
2023/09/14 10:24:58;;;;;;;10.35;2.70;;;18.30;99.90;;;;;;6187122;23;20059;-83
2023/09/14 10:27:29;;;;;;;8.77;2.30;;;18.50;99.90;;;;;;6187075;23;20009;-82
2023/09/14 10:29:58;;;;;;;9.93;2.20;;;18.50;99.90;;;;;;6212740;23;20028;-81
2023/09/14 10:32:25;;;;;;;8.55;2.30;;;18.90;99.90;;;;;;6187262;23;20080;-82
2023/09/14 10:34:51;;;;;;;10.43;2.53;;;18.90;99.90;;;;;;6186826;23;20020;-83
2023/09/14 10:37:20;;;;;;;10.80;2.13;;;19.10;99.90;;;;;;6187901;23;20031;-82
2023/09/14 10:39:46;;;;;;;8.98;1.90;;;19.20;99.90;;;;;;6214091;23;20071;-82
2023/09/14 10:42:12;;;;;;;9.38;2.22;;;19.30;99.90;;;;;;6187388;23;20417;-83
2023/09/14 10:44:38;;;;;;;9.63;2.28;;;19.30;99.90;;;;;;6187308;23;20008;-82
2023/09/14 10:47:05;;;;;;;7.97;2.33;;;19.50;99.90;;;;;;6189134;23;20017;-82
2023/09/14 10:49:33;;;;;;;9.20;2.20;;;19.50;99.90;;;;;;6187308;23;20066;-82
2023/09/14 10:52:00;;;;;;;8.27;2.25;;;19.70;99.90;;;;;;6214885;23;20449;-83
2023/09/14 10:54:27;;;;;;;8.60;2.20;;;19.80;99.90;;;;;;6188128;23;20012;-82
2023/09/14 10:57:00;;;;;;;10.23;2.13;;;19.90;99.90;;;;;;6214008;23;20009;-82
2023/09/14 10:59:45;;;;;;;;;;;20.10;99.90;;;;;;6188464;23;20016;-83
2023/09/14 11:02:10;;;;;;;9.65;2.85;;;20.40;99.90;;;;;;6189639;23;20263;-84
2023/09/14 11:05:11;;;;;;;10.07;2.25;;;20.30;99.90;;;;;;6189455;23;20044;-83
2023/09/14 11:07:39;;;;;;;7.95;2.33;;;20.40;99.90;;;;;;6190719;23;20024;-84
2023/09/14 11:10:06;;;;;;;9.85;2.38;;;20.70;99.90;;;;;;6189931;23;20404;-85
2023/09/14 11:12:35;;;;;;;11.60;2.60;;;20.60;99.90;;;;;;6189746;23;20437;-84
2023/09/14 11:15:21;;;;;;;9.30;2.25;;;20.30;99.90;;;;;;6189196;23;20017;-84
2023/09/14 11:17:51;;;;;;;8.50;2.20;;;20.30;99.90;;;;;;6188946;23;20020;-83
2023/09/14 11:20:20;;;;;;;12.73;2.42;;;20.50;99.90;;;;;;6189979;23;20283;-84
2023/09/14 11:22:48;;;;;;;11.93;2.95;;;20.70;99.90;;;;;;6188461;23;20445;-84
2023/09/14 11:25:36;;;;;;;8.70;2.20;;;20.80;99.90;;;;;;6189836;23;20070;-83
2023/09/14 11:28:02;;;;;;;11.38;2.63;;;20.70;99.90;;;;;;6189729;23;20017;-83
2023/09/14 11:30:32;;;;;;;8.57;2.40;;;20.60;99.90;;;;;;6188711;23;20015;-83
2023/09/14 11:33:02;;;;;;;7.70;2.10;;;20.50;99.90;;;;;;6189400;23;20020;-84
2023/09/14 11:35:34;;;;;;;8.50;2.30;;;20.60;99.90;;;;;;6190053;23;20017;-84
2023/09/14 11:38:12;;;;;;;10.73;2.40;;;20.90;99.90;;;;;;6189102;23;20032;-84
2023/09/14 11:40:41;;;;;;;8.98;2.20;;;21.00;99.90;;;;;;6189553;23;20275;-84
2023/09/14 11:43:21;;;;;;;12.40;2.58;;;21.40;99.90;;;;;;6190478;23;20024;-84
2023/09/14 11:45:49;;;;;;;6.65;2.20;;;21.40;99.90;;;;;;6188405;23;20013;-83
2023/09/14 11:48:15;;;;;;;9.25;2.10;;;20.90;99.90;;;;;;6189506;23;20517;-83
2023/09/14 11:50:44;;;;;;;9.25;2.50;;;20.60;99.90;;;;;;6189243;23;20341;-84
2023/09/14 11:53:17;;;;;;;9.65;2.55;;;20.20;99.90;;;;;;6189045;23;20024;-83
2023/09/14 11:55:44;;;;;;;10.93;2.65;;;20.00;99.70;;;;;;6188693;23;20095;-83
2023/09/14 11:58:11;;;;;;;12.55;2.78;;;19.80;99.90;;;;;;6188347;23;20935;-83
2023/09/14 12:00:56;;;;;;;9.68;2.33;;;19.80;99.90;;;;;;6189022;23;20016;-83
2023/09/14 12:03:23;;;;;;;10.48;2.20;;;20.20;99.90;;;;;;6189420;23;20453;-83
2023/09/14 12:13:54;;;;;;;8.73;2.60;;;21.20;99.90;;;;;;6215064;23;20127;-83
2023/09/14 12:16:27;;;;;;;8.60;2.20;;;21.00;99.90;;;;;;6189404;23;20031;-83
2023/09/14 12:19:21;;;;;;;9.15;2.30;;;20.50;99.90;;;;;;6148977;23;20039;-83
2023/09/14 12:22:47;;;;;;;11.77;2.38;;;20.30;99.90;;;;;;6189049;23;20102;-83
2023/09/14 12:33:00;;;;;;;9.32;2.45;;;20.50;99.90;;;;;;5980452;24;20024;-83
2023/09/14 12:52:50;;;;;;;7.90;2.53;;;21.40;99.90;;;;;;6215690;23;20104;-82
2023/09/14 12:59:01;;;;;;;9.35;2.80;;;21.70;99.90;;;;;;6093917;23;20018;-82
2023/09/14 13:01:55;;;;;;;9.65;2.63;;;21.00;99.90;;;;;;6187220;23;20669;-82
2023/09/14 13:04:21;;;;;;;7.50;2.30;;;20.80;99.90;;;;;;6189060;23;20016;-82
2023/09/14 13:06:47;;;;;;;8.55;2.40;;;21.40;99.90;;;;;;6188361;23;20179;-82
2023/09/14 13:10:02;;;;;;;9.07;2.30;;;21.50;99.90;;;;;;6187995;23;20065;-82
2023/09/14 13:12:50;;;;;;;9.13;2.42;;;21.80;99.80;;;;;;6188627;23;20020;-82
2023/09/14 13:18:51;;;;;;;9.88;2.33;;;22.60;99.20;;;;;;6215006;23;20507;-82
2023/09/14 13:21:51;;;;;;;8.75;2.60;;;22.70;99.90;;;;;;6188970;23;20021;-82
2023/09/14 13:28:33;;;;;;;9.90;2.70;;;22.40;99.00;;;;;;6188118;23;20023;-82
2023/09/14 13:36:52;;;;;;;8.45;2.80;;;22.20;99.90;;;;;;6212619;23;20020;-82
2023/09/14 13:39:48;;;;;;;9.65;3.47;;;21.60;98.20;;;;;;6214578;23;20400;-82
2023/09/14 13:42:14;;;;;;;8.25;2.45;;;21.50;99.90;;;;;;6188464;23;20098;-82
2023/09/14 13:45:14;;;;;;;8.95;2.70;;;21.30;99.90;;;;;;6186960;23;20021;-82
2023/09/14 13:47:48;;;;;;;8.43;2.30;;;21.90;98.40;;;;;;6159867;23;20020;-82
2023/09/14 13:50:13;;;;;;;;;;;22.30;99.90;;;;;;6189099;23;20445;-82
2023/09/14 13:53:10;;;;;;;9.32;2.80;;;22.20;99.30;;;;;;6160913;23;19923;-82
2023/09/14 13:56:23;;;;;;;11.48;2.85;;;22.00;96.50;;;;;;6188101;23;20441;-82
2023/09/14 14:03:21;;;;;;;9.20;2.60;;;21.10;96.90;;;;;;6064839;23;20054;-83
2023/09/14 14:06:22;;;;;;;8.52;2.60;;;20.70;99.90;;;;;;6039624;23;20193;-82
2023/09/14 14:09:03;;;;;;;10.23;2.70;;;20.80;99.90;;;;;;6040762;23;20027;-82
2023/09/14 14:11:29;;;;;;;8.90;2.65;;;20.50;99.90;;;;;;6040279;23;20019;-82
2023/09/14 14:18:04;;;;;;;10.73;2.55;;;20.60;99.90;;;;;;6158236;23;20021;-83
2023/09/14 14:28:47;;;;;;;11.82;2.70;;;20.90;97.90;;;;;;6184406;23;20020;-83
2023/09/14 14:31:24;;;;;;;;;;;20.70;99.90;;;;;;6158690;23;20107;-83
2023/09/14 14:37:36;;;;;;;;;;;;;;;;;;;;;